createdAt,value
2016-08-28T04:01:25.380Z,0
2016-08-28T04:01:51.033Z,0
2016-08-28T04:02:16.524Z,0
2016-08-28T04:02:42.096Z,0
2016-08-28T04:03:07.675Z,0
2016-08-28T04:03:33.237Z,0
2016-08-28T04:03:58.790Z,0
2016-08-28T04:04:24.363Z,0
2016-08-28T04:04:49.935Z,0
2016-08-28T04:05:15.503Z,0
2016-08-28T04:05:41.178Z,0
2016-08-28T04:06:06.759Z,0
2016-08-28T04:06:32.338Z,0
2016-08-28T04:06:57.928Z,0
2016-08-28T04:07:23.513Z,0
2016-08-28T04:07:49.068Z,0
2016-08-28T04:08:14.632Z,0
2016-08-28T04:08:40.276Z,0
2016-08-28T04:09:05.860Z,0
2016-08-28T04:09:31.446Z,0
2016-08-28T04:09:57.005Z,0
2016-08-28T04:10:22.579Z,0
2016-08-28T04:10:48.136Z,0
2016-08-28T04:11:13.680Z,0
2016-08-28T04:11:39.216Z,0
2016-08-28T04:12:04.767Z,0
2016-08-28T04:12:30.311Z,0
2016-08-28T04:12:55.867Z,0
2016-08-28T04:13:21.466Z,0
2016-08-28T04:13:47.018Z,0
2016-08-28T04:14:12.561Z,0
2016-08-28T04:14:38.237Z,0
2016-08-28T04:15:03.789Z,0
2016-08-28T04:15:29.362Z,0
2016-08-28T04:15:54.919Z,0
2016-08-28T04:16:20.486Z,0
2016-08-28T04:16:46.059Z,0
2016-08-28T04:17:11.615Z,0
2016-08-28T04:17:37.184Z,0
2016-08-28T04:18:02.750Z,0
2016-08-28T04:18:28.318Z,0
2016-08-28T04:18:53.872Z,0
2016-08-28T04:19:19.427Z,0
2016-08-28T04:19:44.997Z,0
2016-08-28T04:20:10.549Z,0
2016-08-28T04:20:36.101Z,0
2016-08-28T04:21:01.668Z,0
2016-08-28T04:21:27.343Z,0
2016-08-28T04:21:53.024Z,0
2016-08-28T04:22:18.591Z,0
2016-08-28T04:22:44.153Z,0
2016-08-28T04:23:09.778Z,0
2016-08-28T04:23:35.349Z,0
2016-08-28T04:24:00.919Z,0
2016-08-28T04:24:26.485Z,0
2016-08-28T04:24:52.079Z,0
2016-08-28T04:25:17.649Z,0
2016-08-28T04:25:43.220Z,0
2016-08-28T04:26:08.793Z,0
2016-08-28T04:26:34.378Z,0
2016-08-28T04:26:59.946Z,0
2016-08-28T04:27:25.514Z,0
2016-08-28T04:27:51.090Z,0
2016-08-28T04:28:16.691Z,0
2016-08-28T04:29:40.338Z,0
2016-08-28T04:31:47.683Z,0
2016-08-28T04:32:13.249Z,0
2016-08-28T04:32:38.816Z,0
2016-08-28T04:33:04.383Z,0
2016-08-28T04:33:29.968Z,0
2016-08-28T04:33:55.593Z,0
2016-08-28T04:34:21.185Z,0
2016-08-28T04:34:46.767Z,0
2016-08-28T04:35:12.368Z,0
2016-08-28T04:35:37.929Z,0
2016-08-28T04:36:03.488Z,0
2016-08-28T04:36:29.052Z,0
2016-08-28T04:36:54.597Z,0
2016-08-28T04:37:20.251Z,0
2016-08-28T04:37:45.818Z,0
2016-08-28T04:38:11.391Z,0
2016-08-28T04:38:36.970Z,0
2016-08-28T04:39:02.534Z,0
2016-08-28T04:39:28.109Z,0
2016-08-28T04:39:53.668Z,0
2016-08-28T04:40:19.230Z,0
2016-08-28T04:40:44.832Z,0
2016-08-28T04:41:10.414Z,0
2016-08-28T04:41:35.986Z,0
2016-08-28T04:42:01.648Z,0
2016-08-28T04:42:27.216Z,0
2016-08-28T04:42:52.781Z,0
2016-08-28T04:43:18.349Z,0
2016-08-28T04:43:44.060Z,0
2016-08-28T04:44:09.627Z,0
2016-08-28T04:44:35.189Z,0
2016-08-28T04:45:00.750Z,0
2016-08-28T04:45:26.316Z,0
2016-08-28T04:45:51.888Z,0
2016-08-28T04:46:17.487Z,0
2016-08-28T04:46:43.071Z,0
2016-08-28T04:47:08.651Z,0
2016-08-28T04:47:34.202Z,0
2016-08-28T04:47:59.773Z,0
2016-08-28T04:48:25.338Z,0
2016-08-28T04:48:50.937Z,0
2016-08-28T04:49:16.517Z,0
2016-08-28T04:49:42.088Z,0
2016-08-28T04:50:07.753Z,0
2016-08-28T04:50:33.427Z,0
2016-08-28T04:50:58.995Z,0
2016-08-28T04:51:24.558Z,0
2016-08-28T04:52:38.048Z,0
2016-08-28T04:53:03.597Z,0
2016-08-28T04:53:29.172Z,4
2016-08-28T04:53:54.758Z,4
2016-08-28T04:54:20.404Z,4
2016-08-28T04:54:45.987Z,4
2016-08-28T04:55:11.558Z,4
2016-08-28T04:55:37.145Z,4
2016-08-28T04:56:02.700Z,4
2016-08-28T04:56:28.261Z,4
2016-08-28T04:56:53.821Z,4
2016-08-28T04:57:19.399Z,4
2016-08-28T04:57:44.971Z,4
2016-08-28T04:58:10.556Z,4
2016-08-28T04:58:36.134Z,4
2016-08-28T04:59:01.700Z,0
2016-08-28T04:59:27.248Z,0
2016-08-28T04:59:52.821Z,0
2016-08-28T05:00:18.408Z,0
2016-08-28T05:00:43.956Z,0
2016-08-28T05:01:09.550Z,0
2016-08-28T05:01:35.113Z,0
2016-08-28T05:02:00.682Z,0
2016-08-28T05:02:26.243Z,0
2016-08-28T05:02:51.797Z,0
2016-08-28T05:03:17.450Z,0
2016-08-28T05:03:43.023Z,0
2016-08-28T05:04:08.594Z,4
2016-08-28T05:04:34.151Z,4
2016-08-28T05:04:59.721Z,4
2016-08-28T05:05:25.289Z,4
2016-08-28T05:05:50.863Z,4
2016-08-28T05:06:16.419Z,4
2016-08-28T05:06:41.966Z,4
2016-08-28T05:07:07.603Z,4
2016-08-28T05:07:33.132Z,4
2016-08-28T05:07:58.694Z,4
2016-08-28T05:08:24.258Z,4
2016-08-28T05:08:49.884Z,4
2016-08-28T05:09:15.551Z,0
2016-08-28T05:09:41.167Z,0
2016-08-28T05:10:06.732Z,0
2016-08-28T05:10:32.290Z,4
2016-08-28T05:10:57.868Z,4
2016-08-28T05:11:23.420Z,4
2016-08-28T05:11:49.047Z,4
2016-08-28T05:12:14.608Z,4
2016-08-28T05:12:40.176Z,4
2016-08-28T05:13:05.747Z,4
2016-08-28T05:13:31.349Z,4
2016-08-28T05:13:56.942Z,4
2016-08-28T05:14:22.509Z,4
2016-08-28T05:14:48.079Z,4
2016-08-28T05:15:13.660Z,4
2016-08-28T05:15:39.263Z,8
2016-08-28T05:16:04.850Z,4
2016-08-28T05:16:30.431Z,4
2016-08-28T05:16:56.010Z,4
2016-08-28T05:17:21.651Z,4
2016-08-28T05:17:47.218Z,4
2016-08-28T05:18:12.884Z,4
2016-08-28T05:18:38.452Z,4
2016-08-28T05:19:04.016Z,4
2016-08-28T05:19:29.605Z,8
2016-08-28T05:19:55.280Z,8
2016-08-28T05:20:20.933Z,8
2016-08-28T05:20:46.490Z,8
2016-08-28T05:21:12.080Z,8
2016-08-28T05:21:37.645Z,4
2016-08-28T05:22:03.216Z,4
2016-08-28T05:22:28.900Z,4
2016-08-28T05:22:54.457Z,4
2016-08-28T05:23:20.014Z,4
2016-08-28T05:23:45.614Z,4
2016-08-28T05:24:11.207Z,8
2016-08-28T05:24:36.769Z,8
2016-08-28T05:25:02.337Z,4
2016-08-28T05:25:27.902Z,4
2016-08-28T05:25:53.475Z,8
2016-08-28T05:26:19.108Z,8
2016-08-28T05:26:44.665Z,8
2016-08-28T05:27:10.227Z,8
2016-08-28T05:27:35.820Z,8
2016-08-28T05:28:01.371Z,8
2016-08-28T05:28:26.957Z,8
2016-08-28T05:28:52.669Z,8
2016-08-28T05:29:18.345Z,8
2016-08-28T05:29:43.969Z,8
2016-08-28T05:30:09.550Z,8
2016-08-28T05:30:35.120Z,4
2016-08-28T05:31:00.847Z,4
2016-08-28T05:31:26.419Z,4
2016-08-28T05:31:51.985Z,8
2016-08-28T05:32:17.649Z,8
2016-08-28T05:32:43.208Z,4
2016-08-28T05:33:08.774Z,8
2016-08-28T05:33:34.337Z,4
2016-08-28T05:33:59.911Z,4
2016-08-28T05:34:25.480Z,4
2016-08-28T05:34:51.095Z,4
2016-08-28T05:35:16.680Z,4
2016-08-28T05:35:42.264Z,4
2016-08-28T05:36:07.902Z,4
2016-08-28T05:36:33.520Z,4
2016-08-28T05:36:59.059Z,8
2016-08-28T05:37:24.675Z,4
2016-08-28T05:37:50.237Z,8
2016-08-28T05:38:16.848Z,8
2016-08-28T05:38:42.420Z,4
2016-08-28T05:39:07.992Z,8
2016-08-28T05:39:33.558Z,4
2016-08-28T05:39:59.204Z,8
2016-08-28T05:40:24.787Z,8
2016-08-28T05:40:50.348Z,8
2016-08-28T05:42:03.853Z,8
2016-08-28T05:42:29.427Z,8
2016-08-28T05:42:54.998Z,4
2016-08-28T05:43:20.555Z,4
2016-08-28T05:43:46.112Z,8
2016-08-28T05:44:11.673Z,8
2016-08-28T05:44:37.228Z,8
2016-08-28T05:45:02.801Z,8
2016-08-28T05:45:28.371Z,8
2016-08-28T05:45:53.942Z,8
2016-08-28T05:46:19.499Z,8
2016-08-28T05:46:45.063Z,4
2016-08-28T05:47:10.644Z,4
2016-08-28T05:47:36.208Z,4
2016-08-28T05:48:01.839Z,8
2016-08-28T05:48:27.449Z,8
2016-08-28T05:48:53.017Z,4
2016-08-28T05:49:18.702Z,4
2016-08-28T05:49:44.269Z,4
2016-08-28T05:50:09.811Z,4
2016-08-28T05:50:35.367Z,8
2016-08-28T05:51:00.944Z,8
2016-08-28T05:51:26.519Z,4
2016-08-28T05:51:52.077Z,8
2016-08-28T05:52:17.638Z,8
2016-08-28T05:52:43.202Z,8
2016-08-28T05:53:08.807Z,8
2016-08-28T05:53:34.378Z,8
2016-08-28T05:53:59.976Z,8
2016-08-28T05:54:25.545Z,8
2016-08-28T05:54:51.119Z,8
2016-08-28T05:55:16.779Z,8
2016-08-28T05:55:42.345Z,8
2016-08-28T05:56:07.904Z,8
2016-08-28T05:56:33.449Z,8
2016-08-28T05:56:59.001Z,8
2016-08-28T05:57:24.567Z,8
2016-08-28T05:57:50.137Z,8
2016-08-28T05:58:15.798Z,8
2016-08-28T05:58:41.431Z,4
2016-08-28T05:59:07.005Z,8
2016-08-28T05:59:32.576Z,8
2016-08-28T05:59:58.139Z,8
2016-08-28T06:01:11.747Z,8
2016-08-28T06:01:38.577Z,8
2016-08-28T06:02:04.185Z,8
2016-08-28T06:02:29.814Z,8
2016-08-28T06:02:55.474Z,8
2016-08-28T06:03:21.038Z,8
2016-08-28T06:03:47.005Z,8
2016-08-28T06:04:12.549Z,8
2016-08-28T06:04:38.132Z,8
2016-08-28T06:05:03.738Z,8
2016-08-28T06:05:29.314Z,8
2016-08-28T06:05:54.912Z,8
2016-08-28T06:06:20.464Z,8
2016-08-28T06:06:46.024Z,8
2016-08-28T06:07:11.591Z,12
2016-08-28T06:07:37.136Z,8
2016-08-28T06:08:02.725Z,8
2016-08-28T06:08:28.265Z,8
2016-08-28T06:08:53.787Z,12
2016-08-28T06:09:19.367Z,12
2016-08-28T06:09:44.922Z,12
2016-08-28T06:10:10.510Z,12
2016-08-28T06:10:36.079Z,8
2016-08-28T06:11:01.683Z,8
2016-08-28T06:11:27.242Z,8
2016-08-28T06:11:52.859Z,8
2016-08-28T06:12:18.458Z,8
2016-08-28T06:12:44.025Z,8
2016-08-28T06:13:09.576Z,12
2016-08-28T06:13:35.222Z,12
2016-08-28T06:14:00.827Z,12
2016-08-28T06:14:26.400Z,12
2016-08-28T06:14:52.021Z,12
2016-08-28T06:15:17.593Z,8
2016-08-28T06:15:43.138Z,8
2016-08-28T06:16:08.786Z,8
2016-08-28T06:16:34.349Z,8
2016-08-28T06:16:59.907Z,8
2016-08-28T06:17:25.452Z,8
2016-08-28T06:17:51.028Z,8
2016-08-28T06:18:16.731Z,8
2016-08-28T06:18:42.297Z,8
2016-08-28T06:19:07.985Z,12
2016-08-28T06:19:34.002Z,12
2016-08-28T06:20:00.456Z,28
2016-08-28T06:20:26.053Z,60
2016-08-28T06:20:58.488Z,56
2016-08-28T06:21:24.066Z,56
2016-08-28T06:21:49.627Z,68
2016-08-28T06:22:15.289Z,68
2016-08-28T06:22:40.924Z,68
2016-08-28T06:23:06.590Z,68
2016-08-28T06:23:32.216Z,68
2016-08-28T06:23:57.769Z,68
2016-08-28T06:24:23.392Z,64
2016-08-28T06:24:48.948Z,64
2016-08-28T06:25:14.592Z,68
2016-08-28T06:25:40.120Z,64
2016-08-28T06:26:05.684Z,64
2016-08-28T06:26:31.233Z,64
2016-08-28T06:26:56.814Z,64
2016-08-28T06:27:22.650Z,68
2016-08-28T06:27:48.215Z,68
2016-08-28T06:28:13.758Z,68
2016-08-28T06:28:39.290Z,64
2016-08-28T06:29:04.848Z,68
2016-08-28T06:29:30.426Z,68
2016-08-28T06:29:56.127Z,68
2016-08-28T06:30:21.724Z,68
2016-08-28T06:30:47.398Z,68
2016-08-28T06:31:12.991Z,68
2016-08-28T06:31:38.542Z,68
2016-08-28T06:32:04.096Z,68
2016-08-28T06:32:29.773Z,68
2016-08-28T06:32:55.343Z,68
2016-08-28T06:33:20.915Z,68
2016-08-28T06:33:46.467Z,68
2016-08-28T06:34:12.295Z,68
2016-08-28T06:34:37.828Z,68
2016-08-28T06:35:03.398Z,68
2016-08-28T06:35:28.936Z,72
2016-08-28T06:35:54.549Z,72
2016-08-28T06:36:20.152Z,68
2016-08-28T06:36:45.832Z,72
2016-08-28T06:37:11.401Z,72
2016-08-28T06:37:37.175Z,68
2016-08-28T06:38:02.725Z,68
2016-08-28T06:38:28.290Z,68
2016-08-28T06:38:53.940Z,68
2016-08-28T06:39:19.476Z,72
2016-08-28T06:39:45.024Z,72
2016-08-28T06:40:10.598Z,72
2016-08-28T06:40:36.142Z,72
2016-08-28T06:41:01.765Z,72
2016-08-28T06:41:27.376Z,68
2016-08-28T06:41:52.935Z,72
2016-08-28T06:42:18.728Z,72
2016-08-28T06:42:44.263Z,72
2016-08-28T06:43:09.805Z,68
2016-08-28T06:43:35.360Z,68
2016-08-28T06:44:00.983Z,68
2016-08-28T06:44:26.505Z,68
2016-08-28T06:44:52.045Z,68
2016-08-28T06:45:17.615Z,68
2016-08-28T06:45:43.241Z,68
2016-08-28T06:46:08.817Z,68
2016-08-28T06:46:34.384Z,68
2016-08-28T06:46:59.920Z,68
2016-08-28T06:47:25.540Z,68
2016-08-28T06:47:51.129Z,64
2016-08-28T06:48:16.699Z,64
2016-08-28T06:48:42.343Z,68
2016-08-28T06:49:08.145Z,68
2016-08-28T06:49:34.167Z,64
2016-08-28T06:49:59.773Z,64
2016-08-28T06:50:25.328Z,64
2016-08-28T06:50:50.889Z,64
2016-08-28T06:51:16.429Z,64
2016-08-28T06:51:41.996Z,64
2016-08-28T06:52:07.585Z,60
2016-08-28T06:52:33.142Z,64
2016-08-28T06:52:58.786Z,60
2016-08-28T06:53:24.366Z,64
2016-08-28T06:53:49.972Z,64
2016-08-28T06:54:15.673Z,64
2016-08-28T06:54:41.257Z,60
2016-08-28T06:55:06.834Z,64
2016-08-28T06:55:32.380Z,64
2016-08-28T06:55:57.942Z,64
2016-08-28T06:56:23.719Z,64
2016-08-28T06:56:49.316Z,60
2016-08-28T06:57:14.858Z,60
2016-08-28T06:57:40.415Z,60
2016-08-28T06:58:05.961Z,60
2016-08-28T06:58:31.540Z,64
2016-08-28T06:58:57.133Z,60
2016-08-28T06:59:22.676Z,64
2016-08-28T06:59:48.276Z,60
2016-08-28T07:00:13.860Z,60
2016-08-28T07:00:39.391Z,60
2016-08-28T07:01:05.059Z,60
2016-08-28T07:01:30.590Z,56
2016-08-28T07:01:56.159Z,60
2016-08-28T07:02:21.837Z,60
2016-08-28T07:02:47.383Z,60
2016-08-28T07:03:12.957Z,64
2016-08-28T07:03:38.508Z,60
2016-08-28T07:04:04.062Z,60
2016-08-28T07:04:29.804Z,64
2016-08-28T07:04:55.339Z,64
2016-08-28T07:05:20.876Z,60
2016-08-28T07:05:46.417Z,64
2016-08-28T07:06:12.014Z,60
2016-08-28T07:06:37.614Z,60
2016-08-28T07:07:03.173Z,60
2016-08-28T07:07:28.813Z,60
2016-08-28T07:07:54.435Z,64
2016-08-28T07:08:19.994Z,64
2016-08-28T07:08:45.633Z,64
2016-08-28T07:09:11.209Z,64
2016-08-28T07:09:37.132Z,60
2016-08-28T07:10:02.774Z,60
2016-08-28T07:10:28.556Z,64
2016-08-28T07:10:54.137Z,64
2016-08-28T07:11:19.692Z,64
2016-08-28T07:11:45.261Z,64
2016-08-28T07:12:10.869Z,64
2016-08-28T07:12:36.497Z,64
2016-08-28T07:13:02.109Z,64
2016-08-28T07:13:27.664Z,64
2016-08-28T07:13:53.245Z,64
2016-08-28T07:14:18.994Z,64
2016-08-28T07:14:44.569Z,64
2016-08-28T07:15:10.127Z,60
2016-08-28T07:15:35.674Z,64
2016-08-28T07:16:01.239Z,64
2016-08-28T07:16:26.808Z,64
2016-08-28T07:16:52.377Z,64
2016-08-28T07:17:17.949Z,64
2016-08-28T07:17:43.504Z,64
2016-08-28T07:18:09.158Z,60
2016-08-28T07:18:34.722Z,60
2016-08-28T07:19:00.280Z,60
2016-08-28T07:19:25.841Z,60
2016-08-28T07:19:51.482Z,60
2016-08-28T07:20:17.052Z,60
2016-08-28T07:20:42.602Z,60
2016-08-28T07:21:08.228Z,64
2016-08-28T07:21:33.783Z,60
2016-08-28T07:21:59.339Z,60
2016-08-28T07:22:24.904Z,60
2016-08-28T07:22:50.518Z,60
2016-08-28T07:23:16.065Z,64
2016-08-28T07:23:41.649Z,64
2016-08-28T07:24:07.203Z,64
2016-08-28T07:24:32.912Z,60
2016-08-28T07:24:58.474Z,60
2016-08-28T07:25:24.362Z,60
2016-08-28T07:25:49.894Z,60
2016-08-28T07:26:16.072Z,60
2016-08-28T07:26:41.637Z,60
2016-08-28T07:27:07.193Z,60
2016-08-28T07:27:32.753Z,60
2016-08-28T07:27:58.344Z,64
2016-08-28T07:28:23.899Z,60
2016-08-28T07:28:49.585Z,64
2016-08-28T07:29:15.254Z,60
2016-08-28T07:29:40.836Z,60
2016-08-28T07:30:06.425Z,60
2016-08-28T07:30:31.978Z,60
2016-08-28T07:30:57.550Z,64
2016-08-28T07:31:23.107Z,60
2016-08-28T07:31:48.671Z,60
2016-08-28T07:32:14.243Z,64
2016-08-28T07:32:39.834Z,60
2016-08-28T07:33:05.454Z,64
2016-08-28T07:33:31.034Z,64
2016-08-28T07:33:56.602Z,60
2016-08-28T07:34:22.180Z,64
2016-08-28T07:34:47.792Z,60
2016-08-28T07:35:13.330Z,64
2016-08-28T07:35:39.175Z,64
2016-08-28T07:36:04.827Z,64
2016-08-28T07:36:30.392Z,68
2016-08-28T07:36:55.930Z,64
2016-08-28T07:37:21.546Z,68
2016-08-28T07:37:47.108Z,68
2016-08-28T07:38:12.650Z,68
2016-08-28T07:38:38.193Z,68
2016-08-28T07:39:03.931Z,64
2016-08-28T07:39:29.490Z,68
2016-08-28T07:39:55.091Z,68
2016-08-28T07:40:20.654Z,72
2016-08-28T07:40:46.196Z,68
2016-08-28T07:42:09.863Z,68
2016-08-28T07:42:35.530Z,72
2016-08-28T07:43:01.072Z,72
2016-08-28T07:43:26.647Z,68
2016-08-28T07:43:52.245Z,72
2016-08-28T07:44:17.874Z,68
2016-08-28T07:44:43.446Z,68
2016-08-28T07:45:09.115Z,68
2016-08-28T07:45:34.666Z,68
2016-08-28T07:46:00.232Z,72
2016-08-28T07:46:25.803Z,68
2016-08-28T07:46:51.370Z,68
2016-08-28T07:47:16.941Z,72
2016-08-28T07:47:42.504Z,72
2016-08-28T07:48:08.060Z,72
2016-08-28T07:48:33.601Z,72
2016-08-28T07:48:59.160Z,72
2016-08-28T07:49:24.735Z,72
2016-08-28T07:49:50.287Z,72
2016-08-28T07:50:15.866Z,72
2016-08-28T07:50:41.420Z,72
2016-08-28T07:51:07.003Z,72
2016-08-28T07:51:32.555Z,72
2016-08-28T07:51:58.144Z,72
2016-08-28T07:52:23.696Z,72
2016-08-28T07:52:49.382Z,72
2016-08-28T07:53:14.945Z,76
2016-08-28T07:53:40.505Z,72
2016-08-28T07:54:06.054Z,72
2016-08-28T07:54:31.650Z,72
2016-08-28T07:54:57.214Z,76
2016-08-28T07:55:22.780Z,72
2016-08-28T07:55:48.341Z,72
2016-08-28T07:56:13.911Z,72
2016-08-28T07:56:39.458Z,72
2016-08-28T07:57:05.047Z,72
2016-08-28T07:57:30.584Z,76
2016-08-28T07:57:56.136Z,72
2016-08-28T07:58:21.753Z,76
2016-08-28T07:58:47.334Z,76
2016-08-28T07:59:12.910Z,76
2016-08-28T07:59:38.460Z,76
2016-08-28T08:00:04.086Z,76
2016-08-28T08:00:29.644Z,76
2016-08-28T08:00:55.196Z,76
2016-08-28T08:01:20.749Z,76
2016-08-28T08:01:46.336Z,76
2016-08-28T08:02:11.968Z,76
2016-08-28T08:02:37.550Z,76
2016-08-28T08:03:03.114Z,76
2016-08-28T08:03:28.671Z,72
2016-08-28T08:03:54.290Z,72
2016-08-28T08:04:19.839Z,76
2016-08-28T08:04:45.385Z,76
2016-08-28T08:05:10.926Z,80
2016-08-28T08:05:36.494Z,76
2016-08-28T08:06:02.024Z,76
2016-08-28T08:06:27.574Z,76
2016-08-28T08:06:53.122Z,76
2016-08-28T08:07:18.672Z,76
2016-08-28T08:07:44.253Z,76
2016-08-28T08:08:09.867Z,76
2016-08-28T08:08:35.418Z,76
2016-08-28T08:09:00.994Z,76
2016-08-28T08:09:26.573Z,80
2016-08-28T08:09:52.146Z,76
2016-08-28T08:10:17.713Z,76
2016-08-28T08:10:43.234Z,76
2016-08-28T08:11:51.671Z,76
2016-08-28T08:12:17.242Z,76
2016-08-28T08:12:42.796Z,80
2016-08-28T08:13:08.364Z,76
2016-08-28T08:13:33.915Z,76
2016-08-28T08:13:59.478Z,76
2016-08-28T08:14:25.098Z,76
2016-08-28T08:14:50.673Z,76
2016-08-28T08:15:16.251Z,76
2016-08-28T08:15:41.832Z,76
2016-08-28T08:16:07.470Z,76
2016-08-28T08:16:33.027Z,76
2016-08-28T08:16:58.640Z,76
2016-08-28T08:17:24.240Z,80
2016-08-28T08:17:49.803Z,76
2016-08-28T08:18:15.444Z,80
2016-08-28T08:18:41.018Z,80
2016-08-28T08:19:06.688Z,80
2016-08-28T08:19:32.259Z,80
2016-08-28T08:19:57.835Z,80
2016-08-28T08:20:23.437Z,80
2016-08-28T08:20:49.028Z,80
2016-08-28T08:21:14.596Z,80
2016-08-28T08:21:40.186Z,80
2016-08-28T08:22:05.738Z,80
2016-08-28T08:22:31.281Z,80
2016-08-28T08:22:56.853Z,76
2016-08-28T08:23:22.403Z,76
2016-08-28T08:23:47.983Z,76
2016-08-28T08:24:13.570Z,80
2016-08-28T08:24:39.132Z,80
2016-08-28T08:25:04.682Z,80
2016-08-28T08:25:30.297Z,80
2016-08-28T08:25:55.839Z,80
2016-08-28T08:26:21.391Z,80
2016-08-28T08:26:46.944Z,80
2016-08-28T08:27:12.498Z,80
2016-08-28T08:27:38.056Z,80
2016-08-28T08:28:03.609Z,80
2016-08-28T08:28:29.320Z,80
2016-08-28T08:28:54.931Z,80
2016-08-28T08:29:20.510Z,84
2016-08-28T08:29:46.066Z,80
2016-08-28T08:30:11.633Z,84
2016-08-28T08:30:37.194Z,80
2016-08-28T08:31:02.847Z,84
2016-08-28T08:31:28.445Z,80
2016-08-28T08:31:54.002Z,84
2016-08-28T08:32:19.572Z,84
2016-08-28T08:32:45.224Z,84
2016-08-28T08:33:10.791Z,80
2016-08-28T08:33:36.396Z,80
2016-08-28T08:34:01.977Z,80
2016-08-28T08:34:27.557Z,80
2016-08-28T08:34:53.118Z,84
2016-08-28T08:35:18.920Z,84
2016-08-28T08:35:44.463Z,84
2016-08-28T08:36:10.019Z,84
2016-08-28T08:36:35.617Z,84
2016-08-28T08:37:01.312Z,80
2016-08-28T08:37:26.884Z,84
2016-08-28T08:37:52.448Z,84
2016-08-28T08:38:18.003Z,80
2016-08-28T08:38:43.624Z,84
2016-08-28T08:39:09.252Z,80
2016-08-28T08:39:34.805Z,84
2016-08-28T08:40:00.391Z,84
2016-08-28T08:40:25.944Z,84
2016-08-28T08:40:51.505Z,84
2016-08-28T08:41:17.075Z,84
2016-08-28T08:41:42.648Z,84
2016-08-28T08:42:08.192Z,84
2016-08-28T08:42:33.774Z,88
2016-08-28T08:42:59.317Z,84
2016-08-28T08:43:24.879Z,88
2016-08-28T08:43:50.427Z,84
2016-08-28T08:44:15.993Z,84
2016-08-28T08:44:41.561Z,84
2016-08-28T08:45:07.124Z,84
2016-08-28T08:45:32.709Z,84
2016-08-28T08:45:58.314Z,88
2016-08-28T08:46:23.864Z,88
2016-08-28T08:46:49.423Z,88
2016-08-28T08:47:15.013Z,88
2016-08-28T08:47:40.584Z,88
2016-08-28T08:48:06.178Z,88
2016-08-28T08:48:31.764Z,88
2016-08-28T08:48:57.316Z,88
2016-08-28T08:49:22.873Z,88
2016-08-28T08:49:48.479Z,88
2016-08-28T08:51:01.968Z,88
2016-08-28T08:53:09.029Z,92
2016-08-28T08:53:34.596Z,92
2016-08-28T08:54:00.161Z,92
2016-08-28T08:54:25.741Z,92
2016-08-28T08:54:51.337Z,92
2016-08-28T08:55:17.095Z,96
2016-08-28T08:55:42.711Z,92
2016-08-28T08:56:08.302Z,96
2016-08-28T08:56:34.291Z,96
2016-08-28T08:56:59.581Z,96
2016-08-28T08:57:25.130Z,96
2016-08-28T08:57:50.688Z,96
2016-08-28T08:58:16.246Z,96
2016-08-28T08:58:41.815Z,96
2016-08-28T08:59:07.380Z,100
2016-08-28T08:59:32.951Z,100
2016-08-28T08:59:58.538Z,100
2016-08-28T09:00:24.086Z,100
2016-08-28T09:00:49.720Z,104
2016-08-28T09:01:15.275Z,104
2016-08-28T09:01:40.904Z,104
2016-08-28T09:02:06.586Z,104
2016-08-28T09:02:32.160Z,104
2016-08-28T09:02:57.731Z,108
2016-08-28T09:03:23.401Z,104
2016-08-28T09:03:48.980Z,108
2016-08-28T09:04:14.715Z,108
2016-08-28T09:04:40.405Z,112
2016-08-28T09:05:06.057Z,112
2016-08-28T09:05:31.735Z,112
2016-08-28T09:05:57.339Z,112
2016-08-28T09:06:22.937Z,112
2016-08-28T09:06:48.618Z,112
2016-08-28T09:07:14.141Z,116
2016-08-28T09:07:39.718Z,116
2016-08-28T09:08:05.579Z,116
2016-08-28T09:08:31.163Z,116
2016-08-28T09:08:56.764Z,116
2016-08-28T09:09:22.356Z,120
2016-08-28T09:09:47.955Z,116
2016-08-28T09:10:13.581Z,120
2016-08-28T09:10:39.158Z,116
2016-08-28T09:11:04.770Z,116
2016-08-28T09:11:30.372Z,116
2016-08-28T09:11:56.003Z,116
2016-08-28T09:12:21.784Z,116
2016-08-28T09:12:47.361Z,116
2016-08-28T09:13:13.065Z,116
2016-08-28T09:13:38.655Z,116
2016-08-28T09:14:04.259Z,112
2016-08-28T09:14:29.872Z,112
2016-08-28T09:14:55.683Z,116
2016-08-28T09:15:21.538Z,112
2016-08-28T09:15:47.120Z,112
2016-08-28T09:16:12.749Z,112
2016-08-28T09:16:38.337Z,112
2016-08-28T09:17:03.944Z,112
2016-08-28T09:17:29.574Z,108
2016-08-28T09:17:55.160Z,108
2016-08-28T09:18:20.761Z,112
2016-08-28T09:18:46.337Z,112
2016-08-28T09:19:11.906Z,112
2016-08-28T09:19:37.523Z,112
2016-08-28T09:20:03.326Z,108
2016-08-28T09:20:28.836Z,112
2016-08-28T09:20:54.513Z,112
2016-08-28T09:21:20.112Z,112
2016-08-28T09:21:45.626Z,112
2016-08-28T09:22:11.228Z,112
2016-08-28T09:22:36.898Z,112
2016-08-28T09:23:02.490Z,112
2016-08-28T09:23:28.106Z,108
2016-08-28T09:23:53.744Z,112
2016-08-28T09:24:19.319Z,112
2016-08-28T09:24:44.902Z,112
2016-08-28T09:25:10.663Z,112
2016-08-28T09:25:36.312Z,112
2016-08-28T09:26:01.877Z,112
2016-08-28T09:26:27.557Z,112
2016-08-28T09:26:53.091Z,112
2016-08-28T09:27:18.636Z,116
2016-08-28T09:27:44.170Z,112
2016-08-28T09:28:09.755Z,112
2016-08-28T09:28:35.328Z,112
2016-08-28T09:29:00.878Z,108
2016-08-28T09:29:26.677Z,104
2016-08-28T09:29:52.238Z,104
2016-08-28T09:30:17.906Z,100
2016-08-28T09:30:43.485Z,100
2016-08-28T09:31:09.133Z,104
2016-08-28T09:31:34.653Z,100
2016-08-28T09:32:00.235Z,100
2016-08-28T09:32:25.785Z,96
2016-08-28T09:32:51.467Z,96
2016-08-28T09:33:17.014Z,100
2016-08-28T09:33:42.562Z,100
2016-08-28T09:34:08.286Z,100
2016-08-28T09:34:33.869Z,100
2016-08-28T09:34:59.525Z,104
2016-08-28T09:35:25.202Z,100
2016-08-28T09:35:50.945Z,100
2016-08-28T09:36:16.552Z,104
2016-08-28T09:36:42.146Z,100
2016-08-28T09:37:07.709Z,104
2016-08-28T09:37:33.258Z,104
2016-08-28T09:37:58.824Z,108
2016-08-28T09:38:24.361Z,104
2016-08-28T09:38:50.052Z,104
2016-08-28T09:39:15.656Z,108
2016-08-28T09:39:41.212Z,108
2016-08-28T09:40:06.765Z,108
2016-08-28T09:40:32.336Z,112
2016-08-28T09:40:57.901Z,112
2016-08-28T09:41:23.466Z,112
2016-08-28T09:41:49.112Z,112
2016-08-28T09:42:14.690Z,116
2016-08-28T09:42:40.256Z,116
2016-08-28T09:43:05.846Z,120
2016-08-28T09:43:31.443Z,120
2016-08-28T09:43:57.017Z,128
2016-08-28T09:44:22.566Z,124
2016-08-28T09:44:48.140Z,124
2016-08-28T09:45:13.715Z,128
2016-08-28T09:45:39.278Z,128
2016-08-28T09:46:04.831Z,128
2016-08-28T09:46:30.390Z,132
2016-08-28T09:46:55.961Z,132
2016-08-28T09:47:21.512Z,132
2016-08-28T09:47:47.184Z,136
2016-08-28T09:48:12.751Z,132
2016-08-28T09:48:38.323Z,132
2016-08-28T09:49:03.903Z,132
2016-08-28T09:49:29.452Z,132
2016-08-28T09:49:55.035Z,136
2016-08-28T09:50:20.588Z,136
2016-08-28T09:50:46.177Z,144
2016-08-28T09:51:11.798Z,144
2016-08-28T09:51:37.432Z,148
2016-08-28T09:52:03.004Z,148
2016-08-28T09:52:28.577Z,148
2016-08-28T09:52:54.134Z,152
2016-08-28T09:53:19.714Z,152
2016-08-28T09:53:45.268Z,156
2016-08-28T09:54:10.835Z,152
2016-08-28T09:54:36.535Z,152
2016-08-28T09:55:02.106Z,156
2016-08-28T09:55:27.612Z,156
2016-08-28T09:55:53.147Z,156
2016-08-28T09:56:18.791Z,156
2016-08-28T09:56:44.382Z,156
2016-08-28T09:57:09.945Z,160
2016-08-28T09:57:35.546Z,160
2016-08-28T09:58:01.138Z,156
2016-08-28T09:59:04.386Z,160
2016-08-28T09:59:29.963Z,156
2016-08-28T09:59:55.517Z,160
2016-08-28T10:00:21.209Z,156
2016-08-28T10:00:46.767Z,160
2016-08-28T10:01:12.345Z,160
2016-08-28T10:01:37.914Z,160
2016-08-28T10:02:03.549Z,160
2016-08-28T10:02:29.106Z,160
2016-08-28T10:02:54.651Z,160
2016-08-28T10:03:20.219Z,160
2016-08-28T10:04:23.396Z,156
2016-08-28T10:04:48.976Z,156
2016-08-28T10:05:52.144Z,152
2016-08-28T10:06:19.549Z,156
2016-08-28T10:08:33.407Z,168
2016-08-28T10:08:58.987Z,172
2016-08-28T10:09:24.538Z,168
2016-08-28T10:09:50.106Z,168
2016-08-28T10:10:15.678Z,160
2016-08-28T10:10:41.238Z,160
2016-08-28T10:11:06.817Z,164
2016-08-28T10:11:32.366Z,164
2016-08-28T10:11:57.940Z,172
2016-08-28T10:12:23.573Z,176
2016-08-28T10:12:49.200Z,176
2016-08-28T10:13:14.742Z,176
2016-08-28T10:13:40.291Z,172
2016-08-28T10:14:05.967Z,172
2016-08-28T10:14:31.520Z,172
2016-08-28T10:14:57.062Z,172
2016-08-28T10:15:22.607Z,172
2016-08-28T10:15:48.161Z,172
2016-08-28T10:16:13.734Z,172
2016-08-28T10:16:39.265Z,172
2016-08-28T10:17:04.819Z,172
2016-08-28T10:18:13.101Z,172
2016-08-28T10:18:38.701Z,172
2016-08-28T10:20:46.067Z,168
2016-08-28T10:21:11.641Z,160
2016-08-28T10:21:37.322Z,144
2016-08-28T10:22:03.088Z,148
2016-08-28T10:22:28.776Z,160
2016-08-28T10:22:54.335Z,180
2016-08-28T10:23:19.953Z,180